Time;durP1;ratioP1;P1;durP2;ratioP2;P2;SDS_P1;SDS_P2;PMS_P1;PMS_P2;Temp;Humidity;BMP_temperature;BMP_pressure;BME280_temperature;BME280_humidity;BME280_pressure;Samples;Min_cycle;Max_cycle;Signal;HPM_P1;HPM_P2
2021/11/23 00:00:21;;;;;;;;;18.00;17.75;;;;;7.46;56.49;102265.16;2091840;28;47112;-65
2021/11/23 00:01:22;;;;;;;;;17.25;16.75;;;;;7.46;56.40;102262.50;2091855;27;48104;-65
2021/11/23 00:02:25;;;;;;;;;23.50;18.00;;;;;7.45;56.64;102269.53;2091649;28;46485;-65
2021/11/23 00:03:26;;;;;;;;;17.00;17.00;;;;;7.45;56.17;102263.38;2091372;28;46980;-65
2021/11/23 00:04:26;;;;;;;;;19.00;18.00;;;;;7.45;56.26;102258.09;2092079;28;47285;-64
2021/11/23 00:05:27;;;;;;;;;23.50;22.00;;;;;7.45;56.48;102266.00;2091183;28;45368;-64
2021/11/23 00:06:32;;;;;;;;;18.00;18.00;;;;;7.45;56.66;102264.25;2091371;28;48512;-64
2021/11/23 00:07:33;;;;;;;;;19.20;18.80;;;;;7.44;56.20;102262.50;2099955;28;48658;-62
2021/11/23 00:08:34;;;;;;;;;25.60;22.60;;;;;7.43;56.35;102266.00;2099851;28;46338;-64
2021/11/23 00:09:35;;;;;;;;;21.00;21.00;;;;;7.42;56.45;102263.34;2088666;28;47726;-65
2021/11/23 00:10:37;;;;;;;;;15.40;14.80;;;;;7.41;56.51;102262.44;2091869;27;46918;-65
2021/11/23 00:11:38;;;;;;;;;20.40;18.20;;;;;7.41;56.49;102262.44;2091230;28;45329;-65
2021/11/23 00:12:38;;;;;;;;;22.75;20.00;;;;;7.40;56.55;102258.03;2091010;28;48375;-63
2021/11/23 00:13:39;;;;;;;;;17.25;16.25;;;;;7.40;56.42;102263.31;2099955;28;47518;-64
2021/11/23 00:14:39;;;;;;;;;19.25;19.25;;;;;7.40;56.47;102257.16;2107859;27;47007;-63
2021/11/23 00:15:40;;;;;;;;;22.25;19.00;;;;;7.39;56.66;102261.53;2091456;28;45347;-63
2021/11/23 00:16:41;;;;;;;;;20.60;20.60;;;;;7.38;56.40;102260.66;2091179;28;47256;-63
2021/11/23 00:17:42;;;;;;;;;21.25;20.00;;;;;7.38;56.50;102258.00;2092024;28;45328;-63
2021/11/23 00:18:42;;;;;;;;;20.75;18.00;;;;;7.38;56.64;102263.28;2091922;28;47152;-63
2021/11/23 00:19:43;;;;;;;;;23.50;21.25;;;;;7.39;56.58;102264.19;2091823;28;47042;-63
2021/11/23 00:20:45;;;;;;;;;20.00;19.75;;;;;7.38;56.42;102255.38;2091939;28;47201;-63
2021/11/23 00:21:45;;;;;;;;;18.40;18.00;;;;;7.37;56.48;102266.81;2092138;28;46131;-63
2021/11/23 00:22:46;;;;;;;;;18.75;18.00;;;;;7.38;56.67;102265.03;2091713;28;47443;-63
2021/11/23 00:23:47;;;;;;;;;23.00;20.25;;;;;7.37;56.56;102272.09;2090229;28;45401;-63
2021/11/23 00:24:48;;;;;;;;;20.75;20.75;;;;;7.36;56.74;102264.09;2091164;28;47881;-63
2021/11/23 00:25:48;;;;;;;;;19.20;18.40;;;;;7.34;56.44;102260.56;2096593;28;47432;-63
2021/11/23 00:26:49;;;;;;;;;20.50;20.50;;;;;7.34;56.47;102263.19;2099591;28;48007;-63
2021/11/23 00:27:49;;;;;;;;;20.00;17.50;;;;;7.32;56.59;102260.53;2083431;28;46898;-63
2021/11/23 00:28:50;;;;;;;;;23.50;22.25;;;;;7.31;56.45;102263.16;2083557;28;47980;-65
2021/11/23 00:29:52;;;;;;;;;18.25;17.75;;;;;7.30;56.74;102261.38;2091523;28;48430;-64
2021/11/23 00:30:52;;;;;;;;;18.40;18.40;;;;;7.29;56.62;102260.50;2082919;28;47335;-63
2021/11/23 00:31:53;;;;;;;;;18.25;18.25;;;;;7.29;56.68;102259.59;2091434;28;47378;-63
2021/11/23 00:32:54;;;;;;;;;18.50;18.50;;;;;7.29;56.75;102259.59;2099838;28;45423;-63
2021/11/23 00:33:54;;;;;;;;;16.80;16.80;;;;;7.27;56.60;102262.22;2091004;27;47348;-64
2021/11/23 00:34:55;;;;;;;;;18.75;18.00;;;;;7.27;56.49;102254.31;2091482;28;47457;-64
2021/11/23 00:35:56;;;;;;;;;17.00;16.00;;;;;7.27;56.41;102256.06;2082909;28;47242;-64
2021/11/23 00:36:59;;;;;;;;;21.00;19.60;;;;;7.26;56.70;102251.63;2091129;28;47254;-63
2021/11/23 00:37:59;;;;;;;;;16.60;16.20;;;;;7.26;56.74;102255.16;2090668;28;46440;-64
2021/11/23 00:39:00;;;;;;;;;18.25;17.25;;;;;7.26;56.68;102249.00;2099171;27;47647;-63
2021/11/23 00:40:00;;;;;;;;;21.75;20.25;;;;;7.25;56.95;102252.50;2099094;27;46928;-63
2021/11/23 00:41:01;;;;;;;;;17.50;17.50;;;;;7.24;56.61;102253.34;2099454;28;46996;-63
2021/11/23 00:42:02;;;;;;;;;23.25;21.50;;;;;7.23;56.85;102255.09;2099633;28;47478;-63
2021/11/23 00:43:05;;;;;;;;;16.00;16.00;;;;;7.24;56.64;102253.34;2090934;28;47261;-63
2021/11/23 00:44:06;;;;;;;;;16.20;16.20;;;;;7.24;56.75;102261.25;2083401;28;45554;-64
2021/11/23 00:45:08;;;;;;;;;20.25;19.25;;;;;7.23;56.63;102254.22;2090993;28;46221;-65
2021/11/23 00:46:09;;;;;;;;;17.80;17.60;;;;;7.22;56.83;102255.97;2090953;28;47311;-65
2021/11/23 00:47:09;;;;;;;;;17.25;16.25;;;;;7.22;56.99;102255.97;2091567;28;47079;-65
2021/11/23 00:48:10;;;;;;;;;21.25;19.00;;;;;7.23;56.90;102256.84;2090927;28;46233;-65
2021/11/23 00:49:12;;;;;;;;;20.75;18.25;;;;;7.22;57.14;102258.59;2090917;28;48175;-64
2021/11/23 00:50:14;;;;;;;;;17.00;16.60;;;;;7.21;56.61;102256.81;2091724;28;48462;-65
2021/11/23 00:51:15;;;;;;;;;20.20;18.80;;;;;7.23;56.84;102257.72;2091745;28;48004;-64
2021/11/23 00:52:18;;;;;;;;;17.75;17.00;;;;;7.22;56.99;102258.59;2091856;27;47946;-64
2021/11/23 00:53:18;;;;;;;;;19.20;19.20;;;;;7.23;56.97;102267.41;2091644;28;45389;-65
2021/11/23 00:54:19;;;;;;;;;22.25;20.25;;;;;7.22;56.60;102258.59;2091705;28;48193;-65
2021/11/23 00:55:19;;;;;;;;;22.50;19.25;;;;;7.22;56.62;102263.00;2091292;27;46981;-64
2021/11/23 00:56:20;;;;;;;;;21.75;20.00;;;;;7.23;56.87;102267.41;2097502;27;47295;-65
2021/11/23 00:57:20;;;;;;;;;21.75;21.25;;;;;7.22;56.64;102265.63;2091261;28;47228;-64
2021/11/23 00:58:21;;;;;;;;;21.00;17.75;;;;;7.21;56.87;102262.09;2086344;28;45366;-64
2021/11/23 00:59:22;;;;;;;;;21.20;19.80;;;;;7.21;56.80;102261.22;2083068;28;47421;-65
2021/11/23 01:00:23;;;;;;;;;16.75;15.75;;;;;7.21;56.82;102262.09;2082748;28;47636;-64
2021/11/23 01:01:25;;;;;;;;;18.20;18.20;;;;;7.20;56.84;102260.31;2086852;28;48169;-65
2021/11/23 01:02:25;;;;;;;;;19.60;19.60;;;;;7.21;56.87;102258.56;2089063;28;48400;-64
2021/11/23 01:03:29;;;;;;;;;20.25;19.25;;;;;7.20;56.57;102260.31;2091156;28;48406;-64
2021/11/23 01:04:30;;;;;;;;;18.60;18.00;;;;;7.21;56.79;102266.50;2091630;28;47177;-65
2021/11/23 01:05:30;;;;;;;;;23.00;21.50;;;;;7.20;56.86;102262.97;2091291;28;46218;-65
2021/11/23 01:06:30;;;;;;;;;17.75;16.50;;;;;7.20;57.00;102262.09;2090789;28;47422;-66
2021/11/23 01:07:31;;;;;;;;;20.00;19.75;;;;;7.18;56.56;102262.06;2090566;28;47319;-65
2021/11/23 01:08:37;;;;;;;;;20.40;20.40;;;;;7.18;57.09;102261.16;2091398;28;46458;-65
2021/11/23 01:09:38;;;;;;;;;21.40;19.80;;;;;7.17;57.09;102256.75;2085428;28;46158;-64
2021/11/23 01:10:38;;;;;;;;;21.25;21.25;;;;;7.17;57.06;102255.00;2091318;28;46978;-64
2021/11/23 01:11:39;;;;;;;;;18.25;17.75;;;;;7.16;56.96;102255.88;2089365;28;45530;-64
2021/11/23 01:12:40;;;;;;;;;21.75;17.25;;;;;7.17;56.86;102259.41;2085615;28;46556;-64
2021/11/23 01:13:42;;;;;;;;;20.00;19.00;;;;;7.16;56.78;102258.50;2092209;28;45343;-64
2021/11/23 01:14:42;;;;;;;;;21.60;19.20;;;;;7.16;57.00;102260.25;2083788;28;47329;-65
2021/11/23 01:15:43;;;;;;;;;25.00;21.50;;;;;7.16;56.99;102261.16;2092233;28;47089;-65
2021/11/23 01:16:47;;;;;;;;;20.25;19.25;;;;;7.16;57.03;102258.50;2092882;28;45390;-65
2021/11/23 01:17:48;;;;;;;;;18.20;17.00;;;;;7.15;56.89;102259.38;2092715;27;47101;-65
2021/11/23 01:18:48;;;;;;;;;20.00;20.00;;;;;7.14;56.78;102265.53;2092883;28;46853;-65
2021/11/23 01:19:49;;;;;;;;;20.75;20.00;;;;;7.13;56.75;102258.47;2092884;28;47393;-64
2021/11/23 01:20:50;;;;;;;;;24.50;22.75;;;;;7.13;56.67;102262.88;2092164;28;46141;-65
2021/11/23 01:21:50;;;;;;;;;21.00;19.50;;;;;7.11;56.76;102260.16;2084128;28;47187;-64
2021/11/23 01:22:53;;;;;;;;;23.50;21.25;;;;;7.11;56.97;102264.56;2092115;28;46050;-67
2021/11/23 01:23:54;;;;;;;;;21.80;20.60;;;;;7.10;56.92;102258.38;2093011;28;46378;-65
2021/11/23 01:24:54;;;;;;;;;20.75;20.75;;;;;7.09;56.85;102268.06;2092923;27;47264;-65
2021/11/23 01:25:55;;;;;;;;;20.50;20.50;;;;;7.08;56.83;102263.66;2092645;28;47288;-64
2021/11/23 01:26:56;;;;;;;;;23.40;19.80;;;;;7.06;57.10;102262.75;2092924;28;47432;-64
2021/11/23 01:27:56;;;;;;;;;19.50;19.50;;;;;7.06;57.00;102260.09;2092922;28;48224;-64
2021/11/23 01:28:57;;;;;;;;;16.75;15.75;;;;;7.05;56.81;102263.59;2092638;28;47153;-64
2021/11/23 01:29:57;;;;;;;;;20.75;20.75;;;;;7.05;56.88;102265.34;2100616;28;45454;-65
2021/11/23 01:31:00;;;;;;;;;21.00;18.25;;;;;7.04;56.94;102261.81;2100429;27;47319;-64
2021/11/23 01:32:01;;;;;;;;;18.40;16.40;;;;;7.03;57.06;102267.09;2092911;28;47522;-64
2021/11/23 01:33:02;;;;;;;;;17.60;16.80;;;;;7.03;57.06;102267.97;2092722;28;47368;-64
2021/11/23 01:34:03;;;;;;;;;23.00;21.75;;;;;7.04;57.58;102260.94;2092667;28;48401;-65
2021/11/23 01:35:05;;;;;;;;;20.40;18.00;;;;;7.02;57.02;102263.56;2092758;27;46313;-64
2021/11/23 01:36:06;;;;;;;;;18.00;18.00;;;;;7.01;57.06;102258.25;2100428;28;47317;-64
2021/11/23 01:37:06;;;;;;;;;21.00;21.00;;;;;7.01;56.80;102267.06;2100281;28;47188;-64
2021/11/23 01:38:07;;;;;;;;;22.50;21.75;;;;;7.01;57.42;102260.91;2092732;27;47212;-65
2021/11/23 01:39:09;;;;;;;;;16.50;16.50;;;;;7.02;57.08;102266.19;2092393;28;48023;-63
2021/11/23 01:40:14;;;;;;;;;22.00;21.60;;;;;7.01;57.05;102266.16;2100299;28;47960;-64
2021/11/23 01:41:15;;;;;;;;;27.00;21.40;;;;;7.00;56.88;102257.38;2100051;28;45293;-64
2021/11/23 01:42:16;;;;;;;;;21.25;20.00;;;;;6.99;57.09;102263.50;2092928;28;45968;-63
2021/11/23 01:43:16;;;;;;;;;20.75;19.50;;;;;6.97;57.02;102262.56;2100379;28;45374;-64
2021/11/23 01:44:17;;;;;;;;;19.50;15.50;;;;;6.97;57.05;102264.31;2100786;28;47225;-64
2021/11/23 01:45:18;;;;;;;;;20.50;20.50;;;;;6.96;57.08;102267.81;2089281;28;46481;-64
2021/11/23 01:46:18;;;;;;;;;19.40;18.60;;;;;6.96;57.08;102262.53;2092333;28;47135;-64
2021/11/23 01:47:19;;;;;;;;;20.50;19.50;;;;;6.95;57.26;102266.03;2097362;28;46833;-65
2021/11/23 01:48:19;;;;;;;;;20.75;20.75;;;;;6.93;57.13;102258.09;2092793;28;48388;-64
2021/11/23 01:49:20;;;;;;;;;22.75;22.25;;;;;6.94;57.38;102261.63;2091881;28;47155;-64
2021/11/23 01:50:20;;;;;;;;;22.75;21.75;;;;;6.93;57.23;102259.84;2092454;28;47300;-65
2021/11/23 01:51:21;;;;;;;;;22.75;22.00;;;;;6.92;57.25;102263.38;2092436;28;47336;-64
2021/11/23 01:52:22;;;;;;;;;20.75;18.00;;;;;6.93;57.08;102265.13;2093017;27;48061;-64
2021/11/23 01:53:23;;;;;;;;;23.80;23.80;;;;;6.92;57.30;102264.25;2092259;28;47131;-64
2021/11/23 01:54:24;;;;;;;;;22.00;22.00;;;;;6.92;57.47;102269.53;2092919;28;46296;-64
2021/11/23 01:55:24;;;;;;;;;22.50;20.75;;;;;6.92;57.26;102266.88;2092502;28;46988;-64
2021/11/23 01:56:25;;;;;;;;;20.50;17.50;;;;;6.91;57.30;102265.09;2092153;28;46636;-65
2021/11/23 01:57:26;;;;;;;;;26.80;24.00;;;;;6.92;58.00;102272.16;2091762;28;47235;-64
2021/11/23 01:58:27;;;;;;;;;23.50;21.25;;;;;6.92;57.27;102276.56;2092848;28;45372;-65
2021/11/23 01:59:28;;;;;;;;;19.40;19.40;;;;;6.91;57.18;102270.38;2091775;28;48439;-64
2021/11/23 02:00:29;;;;;;;;;26.75;26.25;;;;;6.90;57.48;102271.25;2083909;28;45404;-65
2021/11/23 02:01:29;;;;;;;;;19.40;18.00;;;;;6.89;57.38;102272.13;2092290;28;47523;-63
2021/11/23 02:02:30;;;;;;;;;21.00;21.00;;;;;6.89;57.29;102269.47;2092768;28;45302;-64
2021/11/23 02:03:30;;;;;;;;;22.75;22.75;;;;;6.89;57.32;102265.94;2092555;28;48227;-65
2021/11/23 02:04:31;;;;;;;;;22.75;21.75;;;;;6.89;57.52;102266.84;2092708;28;47310;-64
2021/11/23 02:05:32;;;;;;;;;15.00;12.80;;;;;6.86;57.33;102261.50;2091724;28;47052;-64
2021/11/23 02:06:33;;;;;;;;;24.40;22.60;;;;;6.86;56.97;102266.78;2092156;28;48037;-65
2021/11/23 02:07:34;;;;;;;;;22.75;18.50;;;;;6.85;57.63;102259.72;2092395;28;44979;-64
2021/11/23 02:08:35;;;;;;;;;20.00;19.00;;;;;6.86;57.15;102264.16;2092500;27;47438;-65
2021/11/23 02:09:36;;;;;;;;;21.80;19.60;;;;;6.86;57.47;102265.88;2092730;28;45404;-64
2021/11/23 02:10:37;;;;;;;;;19.50;19.50;;;;;6.84;57.60;102257.94;2095046;28;45479;-64
2021/11/23 02:11:38;;;;;;;;;20.80;19.00;;;;;6.85;57.38;102266.72;2091626;28;47528;-64
2021/11/23 02:12:39;;;;;;;;;23.75;22.00;;;;;6.84;57.34;102262.31;2092036;28;48055;-65
2021/11/23 02:13:41;;;;;;;;;20.20;19.80;;;;;6.83;57.27;102261.44;2092361;28;47652;-65
2021/11/23 02:14:41;;;;;;;;;20.20;19.60;;;;;6.82;57.48;102272.84;2092289;28;46179;-65
2021/11/23 02:15:42;;;;;;;;;21.75;19.00;;;;;6.81;57.90;102265.78;2086433;28;47409;-66
2021/11/23 02:16:43;;;;;;;;;22.80;22.40;;;;;6.81;57.75;102273.72;2083212;28;47220;-64
2021/11/23 02:17:44;;;;;;;;;25.00;22.20;;;;;6.81;57.17;102264.91;2083787;28;46540;-64
2021/11/23 02:18:45;;;;;;;;;18.00;18.00;;;;;6.81;57.26;102267.56;2087033;28;47037;-64
2021/11/23 02:19:46;;;;;;;;;21.50;21.50;;;;;6.80;56.85;102264.03;2091952;28;48205;-65
2021/11/23 02:20:48;;;;;;;;;25.00;22.20;;;;;6.79;57.56;102273.69;2099916;28;47312;-64
2021/11/23 02:21:48;;;;;;;;;27.20;23.20;;;;;6.79;57.40;102267.53;2091898;28;48323;-64
2021/11/23 02:22:50;;;;;;;;;24.00;21.50;;;;;6.78;57.02;102269.28;2091635;28;47205;-64
2021/11/23 02:23:51;;;;;;;;;22.80;20.60;;;;;6.78;57.27;102268.38;2092615;28;47413;-64
2021/11/23 02:24:51;;;;;;;;;20.75;20.00;;;;;6.76;57.43;102271.00;2092139;28;48194;-65
2021/11/23 02:25:52;;;;;;;;;21.00;21.00;;;;;6.77;57.54;102269.25;2091981;28;47295;-65
2021/11/23 02:26:53;;;;;;;;;20.50;20.50;;;;;6.77;57.45;102269.25;2091492;28;47561;-65
2021/11/23 02:27:53;;;;;;;;;23.20;23.20;;;;;6.76;57.56;102271.00;2092445;28;47200;-65
2021/11/23 02:28:54;;;;;;;;;19.75;19.25;;;;;6.76;57.26;102272.75;2091522;28;46883;-65
2021/11/23 02:29:54;;;;;;;;;21.25;19.50;;;;;6.75;57.38;102265.69;2091990;28;47257;-66
2021/11/23 02:30:58;;;;;;;;;23.00;21.00;;;;;6.75;57.49;102263.06;2099772;28;47576;-65
2021/11/23 02:31:59;;;;;;;;;22.00;20.20;;;;;6.74;57.49;102263.94;2099751;28;48282;-65
2021/11/23 02:32:59;;;;;;;;;20.50;20.50;;;;;6.74;57.67;102262.19;2092069;28;46335;-64
2021/11/23 02:34:00;;;;;;;;;22.25;22.25;;;;;6.74;57.47;102266.56;2092525;28;45202;-65
2021/11/23 02:35:01;;;;;;;;;17.00;16.00;;;;;6.75;57.47;102268.34;2091594;28;45339;-65
2021/11/23 02:36:05;;;;;;;;;19.50;19.50;;;;;6.72;57.19;102258.59;2091682;28;46399;-64
2021/11/23 02:37:05;;;;;;;;;22.40;20.40;;;;;6.72;57.44;102263.88;2092173;28;46172;-65
2021/11/23 02:38:06;;;;;;;;;23.00;20.75;;;;;6.73;57.37;102256.84;2092293;28;47049;-66
2021/11/23 02:39:07;;;;;;;;;23.00;23.00;;;;;6.72;57.52;102261.22;2099864;27;46287;-65
2021/11/23 02:40:08;;;;;;;;;24.00;22.25;;;;;6.72;57.21;102255.94;2099989;27;47702;-65
2021/11/23 02:41:11;;;;;;;;;21.60;21.40;;;;;6.72;57.50;102257.69;2092051;28;46021;-65
2021/11/23 02:42:12;;;;;;;;;19.60;18.20;;;;;6.72;57.51;102258.59;2100393;27;48011;-65
2021/11/23 02:43:13;;;;;;;;;23.60;22.80;;;;;6.72;57.36;102260.34;2099726;28;47340;-65
2021/11/23 02:44:13;;;;;;;;;22.75;22.75;;;;;6.72;57.60;102258.59;2092248;28;46879;-66
2021/11/23 02:45:19;;;;;;;;;22.75;22.25;;;;;6.72;57.18;102261.22;2092028;28;46305;-66
2021/11/23 02:46:19;;;;;;;;;20.00;20.00;;;;;6.73;57.28;102251.56;2093851;28;48363;-67
2021/11/23 02:47:20;;;;;;;;;22.00;21.25;;;;;6.72;57.42;102252.44;2091736;28;47731;-64
2021/11/23 02:48:21;;;;;;;;;26.25;21.75;;;;;6.72;57.70;102252.44;2091692;28;46528;-65
2021/11/23 02:49:22;;;;;;;;;21.75;21.75;;;;;6.71;57.23;102251.53;2091542;28;47069;-66
2021/11/23 02:50:24;;;;;;;;;16.00;16.00;;;;;6.72;57.44;102258.59;2092391;28;48124;-65
2021/11/23 02:51:26;;;;;;;;;24.00;23.00;;;;;6.71;57.09;102256.81;2092091;28;47141;-64
2021/11/23 02:52:27;;;;;;;;;25.80;24.60;;;;;6.71;57.56;102255.94;2100227;28;47720;-65
2021/11/23 02:53:27;;;;;;;;;16.75;15.00;;;;;6.71;57.25;102253.28;2099752;28;48205;-65
2021/11/23 02:54:28;;;;;;;;;26.00;23.00;;;;;6.71;57.58;102255.94;2092295;28;48015;-66
2021/11/23 02:55:32;;;;;;;;;23.25;23.00;;;;;6.71;57.12;102259.44;2099778;28;47148;-66
2021/11/23 02:56:33;;;;;;;;;22.80;22.80;;;;;6.71;57.43;102259.44;2099323;28;45277;-65
2021/11/23 02:57:35;;;;;;;;;19.50;19.50;;;;;6.71;57.27;102261.19;2092123;27;46466;-65
2021/11/23 02:58:35;;;;;;;;;20.20;19.60;;;;;6.72;57.27;102257.69;2092536;28;47213;-64
2021/11/23 02:59:36;;;;;;;;;23.50;20.50;;;;;6.69;57.33;102255.91;2092038;28;48045;-65
2021/11/23 03:00:39;;;;;;;;;23.00;20.75;;;;;6.70;57.16;102254.16;2091786;28;45400;-65
2021/11/23 03:01:39;;;;;;;;;22.20;22.20;;;;;6.69;57.13;102255.91;2083320;28;46809;-64
2021/11/23 03:02:40;;;;;;;;;21.50;19.75;;;;;6.68;57.47;102247.97;2087159;28;46330;-64
2021/11/23 03:03:40;;;;;;;;;21.00;20.00;;;;;6.68;57.31;102259.41;2092382;28;48204;-65
2021/11/23 03:04:41;;;;;;;;;29.50;25.50;;;;;6.67;57.31;102248.81;2099391;28;46718;-65
2021/11/23 03:05:42;;;;;;;;;22.25;22.00;;;;;6.66;57.48;102255.84;2100134;27;47421;-65
2021/11/23 03:06:43;;;;;;;;;25.60;23.60;;;;;6.66;57.61;102255.84;2091480;28;47265;-64
2021/11/23 03:07:43;;;;;;;;;23.80;23.80;;;;;6.66;57.32;102253.22;2091957;28;45366;-66
2021/11/23 03:08:45;;;;;;;;;18.75;18.25;;;;;6.65;57.12;102256.72;2091848;27;47457;-65
2021/11/23 03:09:46;;;;;;;;;27.40;22.20;;;;;6.64;57.23;102254.94;2084044;28;47665;-64
2021/11/23 03:10:47;;;;;;;;;26.00;21.00;;;;;6.63;57.30;102255.81;2086270;28;46941;-64
2021/11/23 03:11:47;;;;;;;;;19.25;19.25;;;;;6.62;57.47;102247.88;2092406;28;48243;-64
2021/11/23 03:12:51;;;;;;;;;20.50;20.50;;;;;6.62;57.06;102245.22;2086723;28;47139;-64
2021/11/23 03:13:52;;;;;;;;;20.60;20.60;;;;;6.60;57.28;102242.53;2085853;28;45717;-64
2021/11/23 03:14:53;;;;;;;;;22.60;22.60;;;;;6.59;57.12;102246.03;2091908;28;46207;-64
2021/11/23 03:15:54;;;;;;;;;25.50;21.25;;;;;6.59;57.52;102243.41;2092130;28;47131;-65
2021/11/23 03:16:54;;;;;;;;;27.00;25.25;;;;;6.59;57.43;102245.16;2091808;28;47171;-64
2021/11/23 03:17:55;;;;;;;;;27.50;21.75;;;;;6.59;57.20;102247.78;2092309;28;48109;-65
2021/11/23 03:18:56;;;;;;;;;24.60;19.40;;;;;6.58;57.24;102241.63;2091815;28;45602;-65
2021/11/23 03:19:56;;;;;;;;;22.75;20.50;;;;;6.58;57.05;102238.09;2099958;28;46587;-64
2021/11/23 03:20:57;;;;;;;;;21.75;19.50;;;;;6.58;57.34;102236.34;2099478;28;48468;-65
2021/11/23 03:21:57;;;;;;;;;20.75;20.75;;;;;6.58;57.35;102235.47;2092437;28;48172;-65
2021/11/23 03:22:59;;;;;;;;;22.00;21.00;;;;;6.57;57.40;102226.66;2091942;27;47060;-65
2021/11/23 03:23:59;;;;;;;;;21.60;20.20;;;;;6.58;57.18;102230.19;2100009;28;48726;-64
2021/11/23 03:25:01;;;;;;;;;17.75;17.25;;;;;6.57;57.08;102234.56;2095330;27;47010;-63
2021/11/23 03:26:01;;;;;;;;;20.60;17.60;;;;;6.57;57.47;102223.13;2083362;28;45406;-65
2021/11/23 03:27:03;;;;;;;;;20.00;19.00;;;;;6.57;57.21;102226.66;2082847;28;47225;-65
2021/11/23 03:28:04;;;;;;;;;23.00;23.00;;;;;6.57;57.31;102231.03;2083906;28;48076;-64
2021/11/23 03:29:05;;;;;;;;;20.80;19.80;;;;;6.57;57.32;102231.03;2099623;27;46919;-65
2021/11/23 03:30:07;;;;;;;;;20.75;20.50;;;;;6.57;57.19;102226.66;2099651;28;47269;-65
2021/11/23 03:31:07;;;;;;;;;23.00;23.00;;;;;6.57;57.08;102228.41;2082428;28;46558;-65
2021/11/23 03:32:09;;;;;;;;;19.75;14.25;;;;;6.55;57.43;102231.00;2090428;28;45337;-65
2021/11/23 03:33:10;;;;;;;;;22.00;21.40;;;;;6.56;57.17;102229.25;2099409;28;46162;-65
2021/11/23 03:34:11;;;;;;;;;21.00;21.00;;;;;6.56;57.43;102229.25;2091438;28;45303;-66
2021/11/23 03:35:13;;;;;;;;;23.25;23.25;;;;;6.56;57.00;102231.91;2083467;28;46869;-65
2021/11/23 03:36:13;;;;;;;;;24.80;22.40;;;;;6.57;57.68;102236.31;2083509;28;48849;-65
2021/11/23 03:37:17;;;;;;;;;21.25;20.00;;;;;6.56;57.41;102231.91;2083750;28;45036;-65
2021/11/23 03:38:18;;;;;;;;;25.00;22.60;;;;;6.57;57.47;102238.94;2083464;28;48119;-65
2021/11/23 03:39:18;;;;;;;;;22.00;22.00;;;;;6.57;57.25;102231.94;2083426;28;46956;-65
2021/11/23 03:40:22;;;;;;;;;23.00;20.75;;;;;6.58;57.31;102235.47;2083384;28;47237;-65
2021/11/23 03:41:23;;;;;;;;;22.00;21.20;;;;;6.58;57.16;102232.81;2091298;28;46959;-65
2021/11/23 03:42:23;;;;;;;;;23.50;21.25;;;;;6.58;57.17;102233.72;2091155;28;47060;-65
2021/11/23 03:43:24;;;;;;;;;22.25;22.25;;;;;6.59;57.05;102231.94;2083462;28;46849;-64
2021/11/23 03:44:25;;;;;;;;;22.50;21.25;;;;;6.58;57.49;102235.47;2083482;28;46439;-65
2021/11/23 03:45:26;;;;;;;;;23.80;22.00;;;;;6.59;57.20;102226.69;2090575;28;47237;-65
2021/11/23 03:46:27;;;;;;;;;26.50;24.00;;;;;6.59;57.15;102227.56;2091829;28;47737;-65
2021/11/23 03:47:30;;;;;;;;;26.80;23.80;;;;;6.59;57.13;102230.19;2085526;28;48251;-65
2021/11/23 03:48:30;;;;;;;;;24.80;23.80;;;;;6.59;57.45;102230.19;2091231;28;47192;-65
2021/11/23 03:49:31;;;;;;;;;22.75;19.50;;;;;6.60;57.40;102223.19;2091230;28;47516;-65
2021/11/23 03:50:33;;;;;;;;;18.50;18.50;;;;;6.59;57.08;102224.94;2083491;28;47150;-65
2021/11/23 03:51:33;;;;;;;;;21.20;18.20;;;;;6.60;57.17;102217.91;2083689;28;47815;-65
2021/11/23 03:52:34;;;;;;;;;25.00;25.00;;;;;6.59;57.00;102216.13;2083630;28;47176;-65
2021/11/23 03:53:34;;;;;;;;;21.75;21.75;;;;;6.59;57.07;102218.75;2074641;28;47065;-65
2021/11/23 03:54:35;;;;;;;;;21.50;21.50;;;;;6.58;56.89;102225.78;2074796;28;46065;-65
2021/11/23 03:55:37;;;;;;;;;21.75;18.75;;;;;6.58;57.40;102219.63;2083160;28;48098;-65
2021/11/23 03:56:40;;;;;;;;;23.00;20.80;;;;;6.58;57.37;102222.25;2091015;28;47365;-65
2021/11/23 03:57:42;;;;;;;;;16.80;16.80;;;;;6.57;56.97;102218.75;2090970;28;46240;-65
2021/11/23 03:58:43;;;;;;;;;22.40;21.20;;;;;6.58;57.58;102217.00;2090859;28;47252;-65
2021/11/23 03:59:47;;;;;;;;;21.40;20.40;;;;;6.57;57.20;102216.09;2091204;28;47268;-64
2021/11/23 04:00:47;;;;;;;;;21.40;21.00;;;;;6.57;57.31;102217.84;2082604;28;47306;-65
2021/11/23 04:01:48;;;;;;;;;21.25;20.75;;;;;6.56;56.87;102216.09;2082845;28;47728;-65
2021/11/23 04:02:49;;;;;;;;;20.75;18.25;;;;;6.55;56.56;102216.94;2091409;28;47081;-64
2021/11/23 04:03:50;;;;;;;;;24.80;21.60;;;;;6.53;56.91;102214.28;2091851;28;45610;-63
2021/11/23 04:04:52;;;;;;;;;24.00;21.50;;;;;6.53;57.04;102216.91;2091511;28;46904;-65
2021/11/23 04:05:52;;;;;;;;;23.80;21.40;;;;;6.53;56.69;102216.03;2092095;28;46197;-65
2021/11/23 04:06:53;;;;;;;;;24.50;22.50;;;;;6.53;57.11;102216.03;2099291;28;48282;-65
2021/11/23 04:07:54;;;;;;;;;23.00;22.25;;;;;6.51;57.13;102216.00;2099520;28;46955;-65
2021/11/23 04:08:54;;;;;;;;;22.00;22.00;;;;;6.51;57.16;102210.72;2089387;28;46815;-65
2021/11/23 04:09:54;;;;;;;;;22.50;22.00;;;;;6.51;57.08;102213.38;2087741;28;48174;-65
2021/11/23 04:10:55;;;;;;;;;21.75;21.75;;;;;6.51;57.10;102212.47;2090581;28;47236;-65
2021/11/23 04:11:55;;;;;;;;;22.75;21.50;;;;;6.49;56.88;102208.06;2083095;28;47164;-65
2021/11/23 04:12:56;;;;;;;;;23.00;21.00;;;;;6.49;56.99;102210.72;2082753;28;47562;-66
2021/11/23 04:13:57;;;;;;;;;19.75;19.50;;;;;6.48;57.05;102214.22;2099657;28;48058;-65
2021/11/23 04:14:58;;;;;;;;;23.80;20.60;;;;;6.47;56.68;102215.03;2099280;28;47165;-64
2021/11/23 04:15:59;;;;;;;;;22.75;21.50;;;;;6.47;56.79;102215.03;2091890;28;47057;-64
2021/11/23 04:16:59;;;;;;;;;23.75;22.00;;;;;6.47;56.87;102215.03;2091725;28;47154;-65
2021/11/23 04:18:00;;;;;;;;;26.75;23.25;;;;;6.45;56.95;102219.41;2091680;28;46962;-65
2021/11/23 04:19:00;;;;;;;;;22.50;20.50;;;;;6.45;56.92;102216.75;2099513;28;47218;-64
2021/11/23 04:20:01;;;;;;;;;19.50;19.00;;;;;6.45;57.03;102222.03;2099652;28;48098;-64
2021/11/23 04:21:03;;;;;;;;;16.00;16.00;;;;;6.45;56.71;102218.50;2090984;28;47597;-65
2021/11/23 04:22:05;;;;;;;;;25.40;22.40;;;;;6.46;56.66;102220.28;2091191;28;48195;-64
2021/11/23 04:23:06;;;;;;;;;27.00;23.20;;;;;6.45;56.99;102226.41;2091517;28;48405;-65
2021/11/23 04:24:07;;;;;;;;;22.00;21.80;;;;;6.45;56.66;102234.34;2091927;28;47856;-65
2021/11/23 04:25:10;;;;;;;;;25.00;22.25;;;;;6.45;56.71;102221.16;2098980;28;45512;-65
2021/11/23 04:26:10;;;;;;;;;20.60;20.60;;;;;6.44;56.77;102225.53;2092894;28;48640;-64
2021/11/23 04:27:11;;;;;;;;;20.50;19.25;;;;;6.45;56.77;102226.41;2083465;28;47337;-65
2021/11/23 04:28:11;;;;;;;;;20.00;19.50;;;;;6.45;57.19;102226.41;2083341;28;45292;-65
2021/11/23 04:29:11;;;;;;;;;19.75;19.75;;;;;6.44;57.13;102233.44;2083372;28;45498;-65
2021/11/23 04:30:13;;;;;;;;;21.50;20.50;;;;;6.44;57.15;102217.63;2082845;28;47149;-65
2021/11/23 04:31:13;;;;;;;;;17.80;17.60;;;;;6.44;56.73;102228.16;2082498;28;47254;-65
2021/11/23 04:32:14;;;;;;;;;19.00;19.00;;;;;6.44;56.73;102224.66;2074498;28;46798;-65
2021/11/23 04:33:16;;;;;;;;;16.75;15.50;;;;;6.43;56.86;102225.50;2090936;28;45260;-65
2021/11/23 04:34:17;;;;;;;;;18.20;18.20;;;;;6.43;57.04;102223.75;2090909;28;47563;-64
2021/11/23 04:35:18;;;;;;;;;20.00;20.00;;;;;6.44;56.72;102225.53;2090997;28;46105;-64
2021/11/23 04:36:19;;;;;;;;;22.80;22.60;;;;;6.44;56.85;102222.00;2091153;28;47326;-65
2021/11/23 04:37:19;;;;;;;;;23.50;21.00;;;;;6.43;56.78;102231.66;2083303;28;45437;-65
2021/11/23 04:38:20;;;;;;;;;23.75;22.25;;;;;6.43;56.98;102228.16;2082895;28;47391;-63
2021/11/23 04:39:21;;;;;;;;;21.60;20.60;;;;;6.43;56.75;102230.78;2082479;28;47518;-66
2021/11/23 04:40:21;;;;;;;;;22.25;21.50;;;;;6.42;57.15;102232.53;2082771;28;45177;-66